Weston-super-Mare, United Kingdom
Current Conditions -  °F | °C
As of 11:20 AM on Thursday 29 Jan 2015 (Local Time) from EGGD Reporting Station
Rain Showers Rain Showers  
Wind Chill: 31°   Ceiling: Unl
Heat Index: 39°   Visibility: 6mi
Dew Point: 34°   Wind: 15mph
Humidity: 81%   Direction: 240°WSW
Pressure: 29.12"   Gusts: NA
Location:  51.35°N, 2.98°W
Report Text: EGGD 291020Z 24013KT 9999 VCSH FEW025 SCT038 04/01 Q0986
Loading
Personal Weather Stations






























Interactive Weather Map New forecast layout! Learn more

10-Day Weather Forecast

Advertisements
Track Severe Weather on mobile